Nissho Maru No7 — JH3472 — position and weather

sailwx.info

Track history (hours):
 
Tides and Currents Weather Stations Pressure Air Temp Water Temp Dewpoint Dewpoint Depression Visibility Wind Speed Wind Dir Waves Ship Positions

Nissho Maru No7

Last reported at 2014-Oct-21 16:33 UTC. Time now 2014-Oct-21 16:57 UTC.
Position N 34°39' E 135°28'.

Length 71 m; draft 4 m.

MMSI: 431200355.

Date/timePositionNaut miles runAvg speedWind from/ knotsBaromVisibWave heightAir tempDewpointWater temp
2014-Oct-21 16:33N 34°39' E 135°28'0 0.0
2014-Oct-21 15:33N 34°39' E 135°28'0 0.0
2014-Oct-21 14:33N 34°39' E 135°28'0 0.0
2014-Oct-21 13:34N 34°39' E 135°28'0 0.0
2014-Oct-21 12:33N 34°39' E 135°28'0 0.0
2014-Oct-21 11:33N 34°39' E 135°28'0 0.0
2014-Oct-21 10:33N 34°39' E 135°28'0 0.1
2014-Oct-21 09:34N 34°39' E 135°28'0 0.0
2014-Oct-21 08:34N 34°39' E 135°28'0 0.0
2014-Oct-21 07:34N 34°39' E 135°28'0 0.0
2014-Oct-21 06:34N 34°39' E 135°28'0 0.0
2014-Oct-21 05:33N 34°39' E 135°28'0 0.0
2014-Oct-21 04:33N 34°39' E 135°28'0 0.0
2014-Oct-21 03:33N 34°39' E 135°28'0 0.0
2014-Oct-21 02:33N 34°39' E 135°28'0 0.0
2014-Oct-21 01:33N 34°39' E 135°28'0 0.0
2014-Oct-21 00:33N 34°39' E 135°28'0 0.0
2014-Oct-20 23:33N 34°39' E 135°28'2 2.4
2014-Oct-20 22:33N 34°39' E 135°25'2 2.2
2014-Oct-20 21:33N 34°37' E 135°23'0 0.0
2014-Oct-20 20:33N 34°37' E 135°23'0 0.0
2014-Oct-20 19:33N 34°37' E 135°23'0 0.0
2014-Oct-20 18:33N 34°37' E 135°23'0 0.0
2014-Oct-20 17:33N 34°37' E 135°23'0 0.0
2014-Oct-20 16:33N 34°37' E 135°23'0 0.0
2014-Oct-20 15:33N 34°37' E 135°23'0 0.0
2014-Oct-20 14:33N 34°37' E 135°23'0 0.0
2014-Oct-20 13:33N 34°37' E 135°23'9 8.4
2014-Oct-20 12:32N 34°31' E 135°16'2110.8
2014-Oct-20 10:33N 34°13' E 135°02'238 8.8
2014-Oct-19 07:33N 35°09' E 139°44'1110.7
2014-Oct-19 06:33N 35°20' E 139°43'7 6.8
2014-Oct-19 05:33N 35°23' E 139°50'3 2.8
2014-Oct-19 04:19N 35°22' E 139°53'0 0.0
2014-Oct-19 03:25N 35°22' E 139°53'0 0.0
2014-Oct-19 02:32N 35°22' E 139°53'0 0.0
2014-Oct-19 01:24N 35°22' E 139°53'0 0.0
2014-Oct-19 00:26N 35°22' E 139°53'0 0.0
2014-Oct-18 23:33N 35°22' E 139°53'0 0.0
2014-Oct-18 22:33N 35°22' E 139°53'0 0.0
2014-Oct-18 21:31N 35°22' E 139°53'0 0.0
2014-Oct-18 20:33N 35°22' E 139°53'0 0.0
2014-Oct-18 19:33N 35°22' E 139°53'0 0.0
2014-Oct-18 18:33N 35°22' E 139°53'0 0.0
2014-Oct-18 17:33N 35°22' E 139°53'0 0.0
2014-Oct-18 16:24N 35°22' E 139°53'0 0.0
2014-Oct-18 13:25N 35°22' E 139°53'0 0.0
2014-Oct-18 12:33N 35°22' E 139°53'0 0.0
2014-Oct-18 11:32N 35°22' E 139°53'0 0.0
2014-Oct-18 10:32N 35°22' E 139°53'0 0.0
2014-Oct-18 09:21N 35°22' E 139°53'1 0.8
2014-Oct-18 08:33N 35°22' E 139°53'0 0.1
2014-Oct-18 07:33N 35°22' E 139°53'0 0.1
2014-Oct-18 06:32N 35°22' E 139°53'0 0.1
2014-Oct-18 05:27N 35°22' E 139°53'0 0.0
2014-Oct-18 04:19N 35°22' E 139°53'6 8.5
2014-Oct-18 03:33N 35°28' E 139°50'4 0.1
2014-Oct-16 06:30N 35°31' E 139°54'1010.5
2014-Oct-16 05:33N 35°24' E 139°46'258 8.3
2014-Oct-14 22:33N 34°06' E 134°46'  
Track history (hours):
 
Tides and Currents Weather Stations Pressure Air Temp Water Temp Dewpoint Dewpoint Depression Visibility Wind Speed Wind Dir Waves Ship Positions

Nissho Maru No7

Last reported at 2014-Oct-21 16:33 UTC. Time now 2014-Oct-21 16:57 UTC.
Position N 34°39' E 135°28'.

Length 71 m; draft 4 m.

MMSI: 431200355.

Date/timePositionNaut miles runAvg speedWind from/ knotsBaromVisibWave heightAir tempDewpointWater temp
2014-Oct-21 16:33N 34°39' E 135°28'0 0.0
2014-Oct-21 15:33N 34°39' E 135°28'0 0.0
2014-Oct-21 14:33N 34°39' E 135°28'0 0.0
2014-Oct-21 13:34N 34°39' E 135°28'0 0.0
2014-Oct-21 12:33N 34°39' E 135°28'0 0.0
2014-Oct-21 11:33N 34°39' E 135°28'0 0.0
2014-Oct-21 10:33N 34°39' E 135°28'0 0.1
2014-Oct-21 09:34N 34°39' E 135°28'0 0.0
2014-Oct-21 08:34N 34°39' E 135°28'0 0.0
2014-Oct-21 07:34N 34°39' E 135°28'0 0.0
2014-Oct-21 06:34N 34°39' E 135°28'0 0.0
2014-Oct-21 05:33N 34°39' E 135°28'0 0.0
2014-Oct-21 04:33N 34°39' E 135°28'0 0.0
2014-Oct-21 03:33N 34°39' E 135°28'0 0.0
2014-Oct-21 02:33N 34°39' E 135°28'0 0.0
2014-Oct-21 01:33N 34°39' E 135°28'0 0.0
2014-Oct-21 00:33N 34°39' E 135°28'0 0.0
2014-Oct-20 23:33N 34°39' E 135°28'2 2.4
2014-Oct-20 22:33N 34°39' E 135°25'2 2.2
2014-Oct-20 21:33N 34°37' E 135°23'0 0.0
2014-Oct-20 20:33N 34°37' E 135°23'0 0.0
2014-Oct-20 19:33N 34°37' E 135°23'0 0.0
2014-Oct-20 18:33N 34°37' E 135°23'0 0.0
2014-Oct-20 17:33N 34°37' E 135°23'0 0.0
2014-Oct-20 16:33N 34°37' E 135°23'0 0.0
2014-Oct-20 15:33N 34°37' E 135°23'0 0.0
2014-Oct-20 14:33N 34°37' E 135°23'0 0.0
2014-Oct-20 13:33N 34°37' E 135°23'9 8.4
2014-Oct-20 12:32N 34°31' E 135°16'2110.8
2014-Oct-20 10:33N 34°13' E 135°02'238 8.8
2014-Oct-19 07:33N 35°09' E 139°44'1110.7
2014-Oct-19 06:33N 35°20' E 139°43'7 6.8
2014-Oct-19 05:33N 35°23' E 139°50'3 2.8
2014-Oct-19 04:19N 35°22' E 139°53'0 0.0
2014-Oct-19 03:25N 35°22' E 139°53'0 0.0
2014-Oct-19 02:32N 35°22' E 139°53'0 0.0
2014-Oct-19 01:24N 35°22' E 139°53'0 0.0
2014-Oct-19 00:26N 35°22' E 139°53'0 0.0
2014-Oct-18 23:33N 35°22' E 139°53'0 0.0
2014-Oct-18 22:33N 35°22' E 139°53'0 0.0
2014-Oct-18 21:31N 35°22' E 139°53'0 0.0
2014-Oct-18 20:33N 35°22' E 139°53'0 0.0
2014-Oct-18 19:33N 35°22' E 139°53'0 0.0
2014-Oct-18 18:33N 35°22' E 139°53'0 0.0
2014-Oct-18 17:33N 35°22' E 139°53'0 0.0
2014-Oct-18 16:24N 35°22' E 139°53'0 0.0
2014-Oct-18 13:25N 35°22' E 139°53'0 0.0
2014-Oct-18 12:33N 35°22' E 139°53'0 0.0
2014-Oct-18 11:32N 35°22' E 139°53'0 0.0
2014-Oct-18 10:32N 35°22' E 139°53'0 0.0
2014-Oct-18 09:21N 35°22' E 139°53'1 0.8
2014-Oct-18 08:33N 35°22' E 139°53'0 0.1
2014-Oct-18 07:33N 35°22' E 139°53'0 0.1
2014-Oct-18 06:32N 35°22' E 139°53'0 0.1
2014-Oct-18 05:27N 35°22' E 139°53'0 0.0
2014-Oct-18 04:19N 35°22' E 139°53'6 8.5
2014-Oct-18 03:33N 35°28' E 139°50'4 0.1
2014-Oct-16 06:30N 35°31' E 139°54'1010.5
2014-Oct-16 05:33N 35°24' E 139°46'258 8.3
2014-Oct-14 22:33N 34°06' E 134°46'  

Dump ship's entire track history